Time;durP1;ratioP1;P1;durP2;ratioP2;P2;SDS_P1;SDS_P2;PMS_P1;PMS_P2;Temp;Humidity;BMP_temperature;BMP_pressure;BME280_temperature;BME280_humidity;BME280_pressure;Samples;Min_cycle;Max_cycle;Signal;HPM_P1;HPM_P2
2022/10/01 00:02:02;;;;;;;13.02;9.15;;;;;;;11.81;100.00;100191.97;2614292;36;20043;-54
2022/10/01 00:04:30;;;;;;;11.32;9.23;;;;;;;11.84;100.00;100178.16;2615508;31;20550;-57
2022/10/01 00:07:03;;;;;;;14.32;9.82;;;;;;;11.95;100.00;100176.22;2614968;31;20042;-59
2022/10/01 00:09:34;;;;;;;13.68;9.20;;;;;;;11.77;100.00;100166.31;2616415;36;20446;-57
2022/10/01 00:12:03;;;;;;;13.13;9.70;;;;;;;11.80;100.00;100157.06;2615490;36;20042;-58
2022/10/01 00:14:31;;;;;;;12.93;9.30;;;;;;;11.73;100.00;100138.84;2614528;36;20562;-56
2022/10/01 00:17:00;;;;;;;13.05;9.93;;;;;;;11.70;100.00;100133.78;2614037;36;20042;-57
2022/10/01 00:19:28;;;;;;;12.57;9.30;;;;;;;11.67;100.00;100126.00;2614553;36;20030;-54
2022/10/01 00:21:56;;;;;;;15.13;9.60;;;;;;;11.82;100.00;100120.00;2615097;31;20041;-57
2022/10/01 00:24:24;;;;;;;12.07;9.10;;;;;;;11.85;100.00;100109.75;2614926;36;20030;-57
2022/10/01 00:26:56;;;;;;;13.77;9.65;;;;;;;11.78;100.00;100102.47;2614969;36;20030;-55
2022/10/01 00:29:24;;;;;;;13.30;10.38;;;;;;;11.67;100.00;100106.28;2615168;36;20038;-56
2022/10/01 00:31:53;;;;;;;15.27;10.13;;;;;;;11.58;100.00;100089.25;2615347;31;20049;-55
2022/10/01 00:34:21;;;;;;;16.17;10.43;;;;;;;11.67;100.00;100090.13;2614634;31;20038;-56
2022/10/01 00:36:49;;;;;;;12.98;9.88;;;;;;;11.74;100.00;100094.69;2612879;36;20022;-54
2022/10/01 00:39:18;;;;;;;17.48;10.40;;;;;;;11.81;100.00;100092.22;2615053;36;20450;-58
2022/10/01 00:41:46;;;;;;;13.20;9.93;;;;;;;11.70;100.00;100073.63;2611866;31;20782;-57
2022/10/01 00:44:33;;;;;;;15.07;10.27;;;;;;;11.60;100.00;100064.81;2604519;31;20034;-54
2022/10/01 00:47:07;;;;;;;14.75;9.25;;;;;;;11.73;100.00;100057.13;2609598;36;20042;-58
2022/10/01 00:49:39;;;;;;;13.40;10.60;;;;;;;11.66;100.00;100051.56;2613471;36;20022;-54
2022/10/01 00:52:13;;;;;;;14.88;9.65;;;;;;;11.70;100.00;100028.66;2614589;31;20476;-55
2022/10/01 00:54:46;;;;;;;15.05;10.23;;;;;;;11.67;100.00;100025.44;2612914;36;20069;-58
2022/10/01 00:57:17;;;;;;;13.80;10.15;;;;;;;11.71;100.00;99999.84;2614678;31;20058;-57
2022/10/01 00:59:49;;;;;;;15.52;10.20;;;;;;;11.64;100.00;99996.13;2615387;36;20023;-57
2022/10/01 01:02:17;;;;;;;15.50;10.63;;;;;;;11.76;100.00;99997.47;2613892;36;20023;-50
2022/10/01 01:04:45;;;;;;;13.02;9.40;;;;;;;11.61;100.00;99999.13;2614560;31;20528;-52
2022/10/01 01:07:14;;;;;;;13.77;9.63;;;;;;;11.57;100.00;100015.63;2615838;36;20045;-53
2022/10/01 01:09:47;;;;;;;14.55;10.45;;;;;;;11.71;100.00;100021.41;2615410;31;20030;-52
2022/10/01 01:12:28;;;;;;;13.00;9.50;;;;;;;11.63;100.00;100006.06;2612427;36;20034;-54
2022/10/01 01:15:10;;;;;;;11.77;8.80;;;;;;;11.74;100.00;100004.91;2614732;36;20039;-53
2022/10/01 01:17:45;;;;;;;13.98;9.68;;;;;;;11.72;100.00;100012.31;2615250;36;20416;-49
2022/10/01 01:20:29;;;;;;;14.52;9.77;;;;;;;11.53;100.00;100006.19;2614518;36;20030;-50
2022/10/01 01:23:14;;;;;;;13.27;9.80;;;;;;;11.57;100.00;100015.63;2615062;36;20038;-53
2022/10/01 01:25:49;;;;;;;12.85;9.23;;;;;;;11.63;100.00;100005.19;2613914;36;20022;-57
2022/10/01 01:28:30;;;;;;;11.15;9.18;;;;;;;11.59;100.00;99988.53;2614456;36;20086;-54
2022/10/01 01:31:03;;;;;;;12.55;9.02;;;;;;;11.68;100.00;100014.47;2613255;36;20030;-55
2022/10/01 01:33:36;;;;;;;12.68;8.77;;;;;;;11.72;100.00;100028.50;2613745;36;20030;-48
2022/10/01 01:36:09;;;;;;;11.45;9.55;;;;;;;11.60;100.00;100029.78;2615067;31;20022;-48
2022/10/01 01:38:42;;;;;;;12.48;8.70;;;;;;;11.71;100.00;100013.31;2614518;36;20069;-48
2022/10/01 01:41:14;;;;;;;11.77;9.02;;;;;;;11.53;100.00;99987.31;2615589;36;20053;-53
2022/10/01 01:43:50;;;;;;;12.07;9.10;;;;;;;11.56;100.00;99995.06;2614029;36;20189;-49
2022/10/01 01:46:21;;;;;;;14.63;8.68;;;;;;;11.63;100.00;99992.59;2614193;36;20118;-50
2022/10/01 01:48:53;;;;;;;16.45;8.93;;;;;;;11.62;100.00;99984.66;2614700;36;20039;-56
2022/10/01 01:51:26;;;;;;;12.20;8.45;;;;;;;11.62;100.00;99958.53;2615618;36;20025;-50
2022/10/01 01:53:56;;;;;;;12.15;8.40;;;;;;;11.49;100.00;99952.78;2615302;36;20420;-53
2022/10/01 01:56:25;;;;;;;12.20;8.15;;;;;;;11.56;100.00;99949.25;2614817;36;20068;-49
2022/10/01 01:58:56;;;;;;;10.80;8.25;;;;;;;11.61;100.00;99945.22;2614541;36;20035;-47
2022/10/01 02:01:38;;;;;;;14.05;8.10;;;;;;;11.64;100.00;99944.91;2614667;36;20175;-53
2022/10/01 02:04:11;;;;;;;11.25;7.60;;;;;;;11.72;100.00;99948.47;2613522;36;20038;-56
2022/10/01 02:06:57;;;;;;;11.00;7.85;;;;;;;11.63;100.00;99940.50;2615638;36;20034;-55
2022/10/01 02:09:32;;;;;;;10.40;7.63;;;;;;;11.61;100.00;99950.63;2615231;36;20450;-50
2022/10/01 02:12:14;;;;;;;9.35;7.05;;;;;;;11.66;100.00;99945.56;2614411;36;20030;-49
2022/10/01 02:14:53;;;;;;;10.50;7.00;;;;;;;11.67;100.00;99914.91;2613757;36;20023;-53
2022/10/01 02:17:31;;;;;;;10.45;7.68;;;;;;;11.69;100.00;99935.31;2614650;36;20061;-56
2022/10/01 02:20:04;;;;;;;12.00;7.68;;;;;;;11.64;100.00;99934.13;2613750;36;20039;-58
2022/10/01 02:22:43;;;;;;;9.02;6.68;;;;;;;11.72;100.00;99931.44;2614321;36;20034;-53
2022/10/01 02:25:14;;;;;;;9.90;6.88;;;;;;;11.86;100.00;99927.25;2614157;36;20035;-54
2022/10/01 02:27:46;;;;;;;9.27;7.00;;;;;;;11.89;100.00;99916.94;2615960;36;20511;-55
2022/10/01 02:30:17;;;;;;;10.45;7.40;;;;;;;11.80;100.00;99923.34;2614776;36;20532;-50
2022/10/01 02:32:52;;;;;;;10.63;6.95;;;;;;;11.91;100.00;99917.66;2614920;47;20550;-54
2022/10/01 02:35:22;;;;;;;8.65;6.28;;;;;;;11.94;100.00;99923.72;2614939;36;20073;-56
2022/10/01 02:37:55;;;;;;;8.90;6.53;;;;;;;11.86;100.00;99914.59;2614572;36;20061;-56
2022/10/01 02:40:26;;;;;;;9.20;6.35;;;;;;;11.86;100.00;99919.16;2615757;36;20043;-52
2022/10/01 02:42:58;;;;;;;9.50;5.80;;;;;;;11.88;100.00;99909.88;2615507;36;20050;-55
2022/10/01 02:45:31;;;;;;;7.28;5.53;;;;;;;11.88;100.00;99907.19;2615350;36;20027;-53
2022/10/01 02:48:04;;;;;;;6.85;5.03;;;;;;;11.86;100.00;99916.44;2616099;31;20425;-54
2022/10/01 02:50:43;;;;;;;5.97;4.80;;;;;;;11.91;100.00;99911.38;2615922;36;20050;-53
2022/10/01 02:53:18;;;;;;;6.53;5.10;;;;;;;11.87;100.00;99913.59;2615180;36;20034;-53
2022/10/01 02:55:48;;;;;;;6.05;4.72;;;;;;;11.88;100.00;99912.59;2614028;36;20026;-52
2022/10/01 02:58:17;;;;;;;6.90;4.43;;;;;;;11.94;100.00;99913.81;2615332;36;20030;-52
2022/10/01 03:00:48;;;;;;;6.10;4.07;;;;;;;12.04;100.00;99908.22;2615029;36;20583;-55
2022/10/01 03:03:16;;;;;;;6.00;4.63;;;;;;;11.89;100.00;99905.34;2614654;36;20045;-55
2022/10/01 03:05:45;;;;;;;5.57;4.10;;;;;;;12.03;100.00;99912.78;2616098;36;20450;-55
2022/10/01 03:08:13;;;;;;;5.78;3.97;;;;;;;12.06;100.00;99900.81;2615011;36;20034;-54
2022/10/01 03:10:41;;;;;;;5.07;3.90;;;;;;;12.11;100.00;99901.13;2614055;36;20042;-53
2022/10/01 03:13:09;;;;;;;6.07;4.03;;;;;;;12.07;100.00;99889.00;2615357;36;20030;-54
2022/10/01 03:15:38;;;;;;;4.75;3.58;;;;;;;12.14;100.00;99875.69;2615972;31;20038;-53
2022/10/01 03:18:09;;;;;;;5.93;3.50;;;;;;;12.05;100.00;99877.56;2615084;31;20561;-51
2022/10/01 03:20:37;;;;;;;5.72;4.38;;;;;;;12.05;100.00;99869.47;2615288;36;20786;-50
2022/10/01 03:23:05;;;;;;;4.18;3.17;;;;;;;12.14;100.00;99879.22;2616398;31;20038;-53
2022/10/01 03:25:33;;;;;;;4.40;3.50;;;;;;;12.12;100.00;99875.88;2615258;36;20023;-53
2022/10/01 03:28:02;;;;;;;4.63;3.53;;;;;;;12.16;100.00;99870.97;2613957;36;20039;-54
2022/10/01 03:30:31;;;;;;;4.45;3.90;;;;;;;12.13;100.00;99877.56;2614860;31;20037;-53
2022/10/01 03:32:59;;;;;;;6.18;4.18;;;;;;;12.11;100.00;99871.47;2608893;36;20065;-49
2022/10/01 03:35:31;;;;;;;5.88;4.32;;;;;;;12.23;100.00;99859.34;2614654;31;20019;-49
2022/10/01 03:38:00;;;;;;;5.75;4.40;;;;;;;12.29;100.00;99863.16;2615255;36;20029;-54
2022/10/01 03:40:28;;;;;;;5.00;4.10;;;;;;;12.24;100.00;99869.09;2615940;36;20026;-54
2022/10/01 03:42:56;;;;;;;5.32;4.38;;;;;;;12.31;100.00;99866.56;2615142;36;20046;-55
2022/10/01 03:45:25;;;;;;;4.95;3.95;;;;;;;12.27;100.00;99866.03;2612607;36;20038;-54
2022/10/01 03:47:53;;;;;;;4.97;4.28;;;;;;;12.39;100.00;99863.00;2615470;31;20053;-55
2022/10/01 03:50:22;;;;;;;5.82;4.60;;;;;;;12.44;100.00;99872.25;2615877;36;20030;-52
2022/10/01 03:52:53;;;;;;;5.82;5.22;;;;;;;12.47;100.00;99865.69;2615262;31;20484;-53
2022/10/01 03:55:21;;;;;;;6.00;5.13;;;;;;;12.43;100.00;99872.44;2615988;36;20034;-54
2022/10/01 03:57:50;;;;;;;5.18;4.63;;;;;;;12.46;100.00;99872.09;2615128;36;20053;-54
2022/10/01 04:00:18;;;;;;;5.95;5.30;;;;;;;12.42;100.00;99863.47;2614869;36;20034;-53
2022/10/01 04:02:46;;;;;;;6.10;5.50;;;;;;;12.51;100.00;99866.16;2612234;36;20415;-50
2022/10/01 04:05:15;;;;;;;6.70;5.63;;;;;;;12.50;100.00;99875.28;2616677;36;20478;-54
2022/10/01 04:07:45;;;;;;;7.00;6.30;;;;;;;12.48;100.00;99875.44;2615234;36;20142;-53
2022/10/01 04:10:15;;;;;;;7.88;7.10;;;;;;;12.43;100.00;99867.88;2615840;36;20436;-54
2022/10/01 04:12:44;;;;;;;7.90;6.72;;;;;;;12.55;100.00;99868.34;2615387;36;20054;-53
2022/10/01 04:15:12;;;;;;;6.97;6.20;;;;;;;12.57;100.00;99874.44;2614102;36;20551;-54
2022/10/01 04:17:40;;;;;;;8.15;6.70;;;;;;;12.59;100.00;99871.56;2615690;36;20041;-54
2022/10/01 04:20:10;;;;;;;7.90;6.88;;;;;;;12.70;100.00;99875.72;2612865;36;20035;-54
2022/10/01 04:22:41;;;;;;;8.88;6.80;;;;;;;12.65;100.00;99878.94;2615173;36;20038;-53
2022/10/01 04:25:11;;;;;;;8.40;7.50;;;;;;;12.83;100.00;99892.22;2615602;36;20089;-50
2022/10/01 04:27:44;;;;;;;8.55;7.65;;;;;;;12.72;100.00;99879.09;2615823;36;20046;-54
2022/10/01 04:30:12;;;;;;;9.70;8.52;;;;;;;12.68;100.00;99889.41;2614438;36;20170;-53
2022/10/01 04:32:41;;;;;;;11.45;7.85;;;;;;;12.78;100.00;99900.00;2614137;36;20583;-51
2022/10/01 04:35:10;;;;;;;9.65;8.27;;;;;;;12.74;100.00;99894.09;2614686;36;20034;-54
2022/10/01 04:37:38;;;;;;;10.07;8.48;;;;;;;12.86;100.00;99905.38;2613328;36;20112;-56
2022/10/01 04:40:08;;;;;;;12.57;8.90;;;;;;;12.91;100.00;99911.09;2615103;36;20425;-56
2022/10/01 04:42:36;;;;;;;10.40;9.00;;;;;;;12.89;100.00;99918.50;2615365;36;20295;-54
2022/10/01 04:45:09;;;;;;;10.20;8.97;;;;;;;12.94;100.00;99917.97;2614748;36;20022;-56
2022/10/01 04:47:37;;;;;;;11.15;8.77;;;;;;;13.05;100.00;99917.59;2615707;36;20287;-55
2022/10/01 04:50:07;;;;;;;10.00;8.60;;;;;;;13.02;100.00;99922.53;2614981;36;20042;-54
2022/10/01 04:52:35;;;;;;;10.75;9.13;;;;;;;13.02;100.00;99930.63;2614834;36;20035;-55
2022/10/01 04:55:03;;;;;;;11.27;8.75;;;;;;;13.04;100.00;99942.09;2614083;36;20027;-54
2022/10/01 04:57:32;;;;;;;9.85;8.85;;;;;;;13.06;100.00;99940.91;2614461;36;20043;-53
2022/10/01 05:00:00;;;;;;;10.60;9.45;;;;;;;13.20;100.00;99952.84;2614505;36;20022;-54
2022/10/01 05:02:33;;;;;;;13.50;10.20;;;;;;;13.16;100.00;99956.91;2614543;36;20061;-54
2022/10/01 05:05:02;;;;;;;12.35;11.05;;;;;;;13.16;100.00;99956.91;2614279;36;20027;-52
2022/10/01 05:07:31;;;;;;;11.45;10.13;;;;;;;13.22;100.00;99948.13;2615317;36;20129;-53
2022/10/01 05:09:59;;;;;;;11.73;10.40;;;;;;;13.15;100.00;99947.13;2614596;36;20042;-55
2022/10/01 05:12:28;;;;;;;11.33;10.13;;;;;;;13.27;100.00;99956.53;2613655;36;20041;-54
2022/10/01 05:14:57;;;;;;;12.85;11.15;;;;;;;13.18;100.00;99949.47;2614785;36;20045;-54
2022/10/01 05:17:26;;;;;;;14.82;11.02;;;;;;;13.20;100.00;99958.25;2615140;36;20022;-54
2022/10/01 05:19:56;;;;;;;14.23;12.73;;;;;;;13.13;100.00;99952.72;2615154;36;20046;-52
2022/10/01 05:22:25;;;;;;;14.00;11.77;;;;;;;13.23;100.00;99966.00;2615157;31;20122;-51
2022/10/01 05:24:53;;;;;;;11.88;10.63;;;;;;;13.38;100.00;99970.69;2615434;36;20033;-52
2022/10/01 05:27:22;;;;;;;16.92;10.88;;;;;;;13.45;100.00;99980.63;2614515;36;20038;-55
2022/10/01 05:29:51;;;;;;;12.43;11.00;;;;;;;13.52;100.00;99977.22;2614609;36;20066;-51
2022/10/01 05:32:19;;;;;;;12.63;10.45;;;;;;;13.49;100.00;99986.53;2613154;36;20029;-56
2022/10/01 05:34:47;;;;;;;13.15;11.18;;;;;;;13.53;100.00;99982.47;2615051;36;20079;-55
2022/10/01 05:37:18;;;;;;;14.73;12.23;;;;;;;13.33;100.00;99985.53;2614482;36;20035;-56
2022/10/01 05:39:47;;;;;;;14.15;11.85;;;;;;;13.46;100.00;99984.19;2614742;36;20030;-53
2022/10/01 05:42:15;;;;;;;16.88;11.40;;;;;;;13.38;100.00;99984.22;2613983;36;20034;-55
2022/10/01 05:44:45;;;;;;;13.32;11.63;;;;;;;13.36;100.00;99995.19;2612773;36;20570;-57
2022/10/01 05:47:14;;;;;;;13.95;11.73;;;;;;;13.36;100.00;99994.38;2614956;36;20034;-55
2022/10/01 05:49:43;;;;;;;12.38;10.68;;;;;;;13.30;100.00;99993.16;2613370;36;20095;-55
2022/10/01 05:52:12;;;;;;;13.55;11.18;;;;;;;13.27;100.00;100002.47;2614200;36;20030;-52
2022/10/01 05:54:43;;;;;;;13.25;11.27;;;;;;;13.28;100.00;99998.75;2615019;36;20575;-54
2022/10/01 05:57:11;;;;;;;13.73;11.30;;;;;;;13.30;100.00;100004.81;2615431;31;20081;-52
2022/10/01 05:59:40;;;;;;;13.07;11.68;;;;;;;13.36;100.00;100005.19;2613074;36;20578;-54
2022/10/01 06:02:11;;;;;;;12.85;11.05;;;;;;;13.10;100.00;100007.09;2611621;36;20034;-54
2022/10/01 06:04:39;;;;;;;15.50;10.75;;;;;;;13.12;100.00;100015.03;2612294;36;20617;-55
2022/10/01 06:07:08;;;;;;;15.17;10.73;;;;;;;13.06;100.00;100010.28;2613998;36;20046;-54
2022/10/01 06:09:36;;;;;;;14.32;10.48;;;;;;;13.09;100.00;100016.22;2614223;36;20395;-55
2022/10/01 06:12:09;;;;;;;12.53;10.43;;;;;;;13.16;100.00;100021.75;2610961;36;20053;-50
2022/10/01 06:14:37;;;;;;;14.95;11.27;;;;;;;13.14;100.00;100018.38;2613088;36;20125;-57
2022/10/01 06:17:06;;;;;;;13.37;10.30;;;;;;;13.19;100.00;100020.56;2615047;36;20038;-57
2022/10/01 06:19:34;;;;;;;14.00;10.77;;;;;;;13.30;100.00;100025.59;2613882;36;20314;-51
2022/10/01 06:22:02;;;;;;;13.40;11.23;;;;;;;13.28;100.00;100025.78;2615325;36;20057;-57
2022/10/01 06:24:31;;;;;;;16.40;11.98;;;;;;;13.27;100.00;100028.66;2615355;36;20524;-52
2022/10/01 06:26:59;;;;;;;16.88;11.32;;;;;;;13.39;100.00;100035.38;2615498;36;20061;-55
2022/10/01 06:29:30;;;;;;;16.60;11.63;;;;;;;13.47;100.00;100040.78;2615525;36;20053;-54
2022/10/01 06:31:58;;;;;;;20.20;11.50;;;;;;;13.25;100.00;100031.53;2614411;36;20045;-56
2022/10/01 06:34:27;;;;;;;15.30;11.02;;;;;;;13.22;100.00;100042.69;2615956;36;20042;-54
2022/10/01 06:36:55;;;;;;;14.80;11.17;;;;;;;13.23;100.00;100044.34;2615155;36;20155;-56
2022/10/01 06:39:23;;;;;;;13.73;10.60;;;;;;;13.28;100.00;100044.69;2616240;36;20084;-52
2022/10/01 06:41:52;;;;;;;14.45;11.57;;;;;;;13.23;100.00;100046.22;2616822;36;20038;-57
2022/10/01 06:44:20;;;;;;;16.40;10.60;;;;;;;13.39;100.00;100048.06;2615199;36;20041;-55
2022/10/01 06:46:51;;;;;;;18.80;11.47;;;;;;;13.38;100.00;100051.78;2616872;36;20127;-50
2022/10/01 06:49:21;;;;;;;14.07;11.32;;;;;;;13.53;100.00;100054.59;2615951;31;20308;-54
2022/10/01 06:54:29;;;;;;;14.80;10.52;;;;;;;13.56;100.00;100060.50;2616392;36;19942;-52
2022/10/01 06:56:58;;;;;;;14.52;10.93;;;;;;;13.56;100.00;100054.22;2616207;36;20564;-53
2022/10/01 06:59:26;;;;;;;14.30;11.00;;;;;;;13.63;100.00;100050.69;2615140;31;20023;-54
2022/10/01 07:01:57;;;;;;;15.35;10.55;;;;;;;13.65;100.00;100056.75;2616282;36;20030;-52
2022/10/01 07:04:25;;;;;;;15.57;11.05;;;;;;;13.71;100.00;100055.19;2616023;36;20042;-53
2022/10/01 07:06:54;;;;;;;16.83;11.50;;;;;;;13.76;100.00;100060.06;2616501;36;20030;-53
2022/10/01 07:09:25;;;;;;;14.03;10.13;;;;;;;13.80;100.00;100069.53;2616024;31;20401;-56
2022/10/01 07:11:54;;;;;;;15.75;10.52;;;;;;;13.89;100.00;100073.88;2615417;36;20038;-53
2022/10/01 07:14:22;;;;;;;14.95;10.07;;;;;;;13.92;100.00;100081.63;2614906;36;20118;-56
2022/10/01 07:16:50;;;;;;;17.02;10.57;;;;;;;14.00;100.00;100078.88;2616577;36;20042;-52
2022/10/01 07:19:21;;;;;;;15.45;11.77;;;;;;;14.01;100.00;100068.91;2616381;36;20030;-55
2022/10/01 07:21:50;;;;;;;14.82;9.90;;;;;;;14.09;100.00;100086.94;2616350;36;20027;-52
2022/10/01 07:24:18;;;;;;;18.02;10.07;;;;;;;14.28;100.00;100082.94;2616318;36;20022;-55
2022/10/01 07:26:49;;;;;;;13.20;10.50;;;;;;;14.27;100.00;100090.22;2617023;36;20031;-52
2022/10/01 07:29:18;;;;;;;14.93;9.90;;;;;;;14.35;100.00;100097.44;2613247;36;20073;-55
2022/10/01 07:31:46;;;;;;;13.03;9.87;;;;;;;14.48;100.00;100103.09;2616446;36;20043;-52
2022/10/01 07:34:14;;;;;;;15.85;9.85;;;;;;;14.60;100.00;100110.81;2616483;36;20559;-53
2022/10/01 07:36:45;;;;;;;11.00;9.35;;;;;;;14.67;100.00;100112.63;2616480;36;20540;-54
2022/10/01 07:39:14;;;;;;;12.10;9.15;;;;;;;14.76;100.00;100115.28;2616045;36;20030;-55
2022/10/01 07:41:43;;;;;;;13.18;8.10;;;;;;;14.95;100.00;100119.38;2616439;36;20041;-56
2022/10/01 07:44:13;;;;;;;13.48;7.65;;;;;;;15.07;100.00;100117.88;2615137;36;20038;-57
2022/10/01 07:46:41;;;;;;;10.85;7.60;;;;;;;15.01;100.00;100114.03;2616297;36;20038;-56
2022/10/01 07:49:10;;;;;;;12.93;7.60;;;;;;;15.08;100.00;100111.44;2616456;36;20042;-54
2022/10/01 07:51:38;;;;;;;10.43;7.63;;;;;;;15.02;100.00;100115.72;2616410;36;20030;-55
2022/10/01 07:54:10;;;;;;;10.30;6.35;;;;;;;15.19;100.00;100118.28;2615782;36;20038;-57
2022/10/01 07:56:38;;;;;;;9.48;5.90;;;;;;;15.07;100.00;100116.03;2615656;31;20030;-57
2022/10/01 07:59:08;;;;;;;9.40;5.78;;;;;;;15.07;100.00;100116.03;2612795;36;20046;-55
2022/10/01 08:01:37;;;;;;;6.45;4.60;;;;;;;15.03;100.00;100125.56;2614993;36;20137;-57
2022/10/01 08:05:16;;;;;;;6.97;4.75;;;;;;;15.09;100.00;100134.81;2612752;36;20026;-55
2022/10/01 08:06:56;;;;;;;10.50;4.25;;;;;;;15.26;100.00;100137.38;2615164;36;20042;-57
2022/10/01 08:09:26;;;;;;;9.25;4.50;;;;;;;15.33;100.00;100139.16;2614059;36;20046;-57
2022/10/01 08:11:55;;;;;;;5.88;3.47;;;;;;;15.54;100.00;100137.59;2614428;36;20031;-55
2022/10/01 08:14:25;;;;;;;6.82;2.75;;;;;;;15.41;100.00;100133.66;2613986;31;20030;-56
2022/10/01 08:16:55;;;;;;;5.60;2.90;;;;;;;15.41;100.00;100132.78;2615245;36;20035;-57
2022/10/01 08:19:24;;;;;;;8.27;2.95;;;;;;;15.40;100.00;100128.44;2614420;36;20038;-56
2022/10/01 08:21:52;;;;;;;6.33;4.27;;;;;;;15.51;100.00;100124.41;2615821;31;20576;-57
2022/10/01 08:24:21;;;;;;;6.97;2.90;;;;;;;15.55;100.00;100126.53;2615088;36;20303;-57
2022/10/01 08:26:56;;;;;;;6.07;2.53;;;;;;;15.81;100.00;100143.41;2615419;36;20034;-58
2022/10/01 08:29:25;;;;;;;6.18;2.70;;;;;;;15.64;100.00;100146.28;2614800;36;20034;-56
2022/10/01 08:31:53;;;;;;;8.17;2.53;;;;;;;15.92;100.00;100151.09;2614789;36;20042;-55
2022/10/01 08:34:21;;;;;;;8.43;2.50;;;;;;;16.10;100.00;100145.25;2614889;36;20045;-57
2022/10/01 08:36:52;;;;;;;7.70;2.60;;;;;;;16.26;100.00;100155.06;2614653;36;20045;-58
2022/10/01 08:39:20;;;;;;;6.75;2.33;;;;;;;16.28;100.00;100155.69;2615310;36;20072;-57
2022/10/01 08:42:02;;;;;;;8.30;2.53;;;;;;;15.77;100.00;100168.16;2615938;36;20027;-52
2022/10/01 08:44:36;;;;;;;8.80;2.42;;;;;;;15.83;100.00;100171.22;2614285;36;20034;-50
2022/10/01 08:47:13;;;;;;;6.95;2.63;;;;;;;15.74;100.00;100173.16;2615871;36;20291;-51
2022/10/01 08:49:46;;;;;;;6.22;2.40;;;;;;;15.57;100.00;100180.59;2615397;36;20030;-52
2022/10/01 08:52:22;;;;;;;3.40;2.20;;;;;;;15.62;100.00;100185.47;2614679;36;20050;-52
2022/10/01 08:54:55;;;;;;;4.78;2.38;;;;;;;15.60;100.00;100180.22;2615275;36;20065;-54
2022/10/01 08:57:31;;;;;;;5.60;2.50;;;;;;;15.40;100.00;100188.06;2614010;36;20022;-55
2022/10/01 09:00:02;;;;;;;5.13;2.30;;;;;;;15.51;100.00;100190.31;2614916;36;20456;-52
2022/10/01 09:02:34;;;;;;;4.55;2.40;;;;;;;15.81;100.00;100208.53;2613666;36;20559;-54
2022/10/01 09:05:05;;;;;;;9.98;3.75;;;;;;;16.03;100.00;100187.75;2614331;36;20034;-56
2022/10/01 09:07:44;;;;;;;6.00;2.90;;;;;;;16.20;100.00;100181.09;2615123;36;20630;-55
2022/10/01 09:10:28;;;;;;;7.93;3.60;;;;;;;16.08;100.00;100190.75;2612171;36;20034;-54
2022/10/01 09:13:17;;;;;;;4.55;3.47;;;;;;;16.06;100.00;100199.09;2614321;36;20034;-58
2022/10/01 09:15:55;;;;;;;6.50;3.55;;;;;;;16.36;100.00;100198.22;2614067;36;20069;-53
2022/10/01 09:18:40;;;;;;;11.35;2.95;;;;;;;16.46;100.00;100196.03;2615668;36;20030;-55
2022/10/01 09:21:19;;;;;;;5.30;2.45;;;;;;;16.41;100.00;100198.47;2615791;36;20120;-55
2022/10/01 09:24:00;;;;;;;6.13;1.88;;;;;;;16.59;100.00;100209.78;2615900;36;20118;-57
2022/10/01 09:26:28;;;;;;;7.32;3.25;;;;;;;16.61;100.00;100206.84;2615864;36;20062;-54
2022/10/01 09:29:03;;;;;;;7.18;1.98;;;;;;;16.80;100.00;100208.94;2615449;36;20023;-57
2022/10/01 09:31:38;;;;;;;7.57;1.75;;;;;;;16.88;100.00;100202.56;2615752;36;20026;-56
2022/10/01 09:34:14;;;;;;;8.90;2.05;;;;;;;17.41;100.00;100202.19;2616188;31;20027;-57
2022/10/01 09:36:49;;;;;;;4.88;1.80;;;;;;;17.47;100.00;100211.44;2615553;36;20042;-57
2022/10/01 09:39:24;;;;;;;4.82;1.75;;;;;;;17.55;100.00;100203.16;2615997;36;20046;-58
2022/10/01 09:41:53;;;;;;;7.00;1.60;;;;;;;17.40;100.00;100205.97;2616248;36;20037;-57
2022/10/01 09:44:28;;;;;;;5.72;1.50;;;;;;;17.77;100.00;100205.78;2614710;36;20035;-57
2022/10/01 09:46:57;;;;;;;8.57;2.03;;;;;;;17.94;100.00;100214.53;2615990;36;20038;-58
2022/10/01 09:49:32;;;;;;;7.28;1.48;;;;;;;18.35;100.00;100213.69;2616845;36;20035;-57
2022/10/01 09:52:06;;;;;;;4.45;1.63;;;;;;;18.63;100.00;100210.03;2616221;31;20027;-57
2022/10/01 09:54:41;;;;;;;14.75;2.28;;;;;;;18.32;100.00;100212.22;2615738;36;20110;-56
2022/10/01 09:57:15;;;;;;;9.40;1.67;;;;;;;17.82;100.00;100206.06;2616076;36;20081;-57
2022/10/01 09:59:53;;;;;;;4.80;1.95;;;;;;;17.80;100.00;100211.69;2614989;36;20038;-57
2022/10/01 10:02:28;;;;;;;10.80;1.80;;;;;;;17.79;100.00;100223.63;2616334;36;20563;-55
2022/10/01 10:05:02;;;;;;;6.15;1.58;;;;;;;17.61;100.00;100228.75;2616687;36;20030;-56
2022/10/01 10:07:33;;;;;;;8.48;1.73;;;;;;;17.89;100.00;100236.88;2616736;36;20142;-56
2022/10/01 10:10:10;;;;;;;7.70;1.42;;;;;;;18.05;100.00;100246.66;2614799;36;20558;-58
2022/10/01 10:12:39;;;;;;;7.05;1.58;;;;;;;18.07;100.00;100241.84;2615227;36;20023;-56
2022/10/01 10:15:18;;;;;;;7.68;1.58;;;;;;;17.95;100.00;100243.44;2615010;36;20026;-57
2022/10/01 10:17:50;;;;;;;6.30;2.05;;;;;;;18.19;100.00;100240.22;2616073;36;20038;-57
2022/10/01 10:20:27;;;;;;;8.95;1.50;;;;;;;18.32;100.00;100242.19;2616239;36;20170;-57
2022/10/01 10:22:55;;;;;;;9.27;1.60;;;;;;;18.86;100.00;100240.53;2615906;36;20631;-56
2022/10/01 10:25:25;;;;;;;8.23;1.50;;;;;;;18.36;100.00;100240.72;2615955;36;20034;-56
2022/10/01 10:27:58;;;;;;;8.05;1.23;;;;;;;18.15;100.00;100251.72;2615293;36;20069;-56
2022/10/01 10:30:31;;;;;;;10.80;1.90;;;;;;;17.80;100.00;100265.28;2613932;36;20559;-56
2022/10/01 10:33:06;;;;;;;9.07;1.60;;;;;;;17.47;100.00;100272.13;2615231;36;20057;-56
2022/10/01 10:35:35;;;;;;;7.18;1.52;;;;;;;17.26;100.00;100286.59;2614325;36;20034;-56
2022/10/01 10:38:04;;;;;;;5.35;1.50;;;;;;;17.29;100.00;100297.09;2615665;36;20030;-55
2022/10/01 10:40:36;;;;;;;7.77;1.60;;;;;;;17.06;100.00;100294.53;2614150;36;20041;-56
2022/10/01 10:43:05;;;;;;;5.78;1.67;;;;;;;16.87;100.00;100297.84;2613334;36;20073;-57
2022/10/01 10:45:40;;;;;;;9.88;2.75;;;;;;;17.02;100.00;100309.59;2614897;36;20038;-56
2022/10/01 10:48:16;;;;;;;5.95;2.00;;;;;;;16.93;100.00;100302.56;2616485;36;20034;-57
2022/10/01 10:50:47;;;;;;;7.80;1.38;;;;;;;16.60;100.00;100302.97;2615810;36;20030;-57
2022/10/01 10:53:21;;;;;;;8.38;1.67;;;;;;;16.67;100.00;100309.34;2615755;36;20027;-56
2022/10/01 10:55:59;;;;;;;6.60;1.38;;;;;;;16.82;100.00;100321.00;2615637;36;21430;-57
2022/10/01 10:58:29;;;;;;;9.82;1.90;;;;;;;16.85;100.00;100316.25;2615799;36;20451;-57
2022/10/01 11:01:02;;;;;;;9.88;3.35;;;;;;;16.99;100.00;100313.50;2615917;36;20405;-58
2022/10/01 11:03:33;;;;;;;8.15;2.00;;;;;;;17.30;100.00;100330.59;2616763;36;20538;-58
2022/10/01 11:06:10;;;;;;;7.03;2.08;;;;;;;17.50;100.00;100334.34;2615428;36;20042;-57
2022/10/01 11:08:39;;;;;;;8.70;1.50;;;;;;;17.91;100.00;100337.44;2616555;32;20030;-57
2022/10/01 11:11:20;;;;;;;7.80;1.60;;;;;;;18.43;100.00;100335.28;2615781;36;20106;-58
2022/10/01 11:14:12;;;;;;;4.80;1.50;;;;;;;18.89;100.00;100338.28;2615019;36;20042;-58
2022/10/01 11:16:55;;;;;;;9.02;1.75;;;;;;;18.94;100.00;100325.91;2615367;31;20039;-58
2022/10/01 11:19:37;;;;;;;4.63;1.13;;;;;;;18.96;100.00;100342.91;2614546;31;20035;-57
2022/10/01 11:22:22;;;;;;;8.38;1.30;;;;;;;19.01;100.00;100349.44;2612508;36;20031;-58
2022/10/01 11:25:07;;;;;;;6.70;1.38;;;;;;;19.16;100.00;100356.63;2614831;36;20022;-58
2022/10/01 11:27:46;;;;;;;5.40;1.52;;;;;;;19.18;100.00;100362.69;2612336;36;20023;-59
2022/10/01 11:30:20;;;;;;;9.23;1.48;;;;;;;19.01;100.00;100364.97;2614589;36;20057;-58
2022/10/01 11:33:02;;;;;;;7.07;1.40;;;;;;;19.15;100.00;100368.56;2616698;31;20407;-58
2022/10/01 11:35:43;;;;;;;9.57;1.50;;;;;;;19.19;100.00;100361.66;2613767;36;20532;-58
2022/10/01 11:38:42;;;;;;;5.03;1.42;;;;;;;19.49;100.00;100383.16;2615568;36;20038;-59